FDX2876 RPVE-RPVB
Flight info
| Callsign | FDX2876 |
|---|---|
| Flight time | N/A |
| Altitude | 15000 |
| Route | KLO8A KLO TR8 GALIA GALIA3P |
| Aircraft | B738/M-SDE2E3FGHIRWXY/LB1 |
Departure
| Time | 2026-05-06 08:33 |
|---|---|
| Airport | Godofredo P. Ramos Airport (RPVE) |
Arrival
| Time | N/A |
|---|---|
| Airport | Bacolod-Silay International Airport (RPVB) |
| Time | Latitude | Longitude | Altitude | Speed | Heading |
|---|---|---|---|---|---|
| 2026-05-06 08:16 | 11.92508 | 121.96303 | 29 ft | 0 kts | 63° |
| 2026-05-06 08:17 | 11.92727 | 121.96471 | 30 ft | 0 kts | 153° |
| 2026-05-06 08:26 | 11.92730 | 121.96470 | 25 ft | 2 kts | 152° |
| 2026-05-06 08:26 | 11.92745 | 121.96462 | 30 ft | 2 kts | 156° |
| 2026-05-06 08:26 | 11.92761 | 121.96457 | 27 ft | 2 kts | 191° |
| 2026-05-06 08:26 | 11.92770 | 121.96464 | 28 ft | 1 kts | 242° |
| 2026-05-06 08:27 | 11.92771 | 121.96465 | 28 ft | 0 kts | 242° |
| 2026-05-06 08:28 | 11.92762 | 121.96449 | 27 ft | 8 kts | 242° |
| 2026-05-06 08:29 | 11.92719 | 121.96362 | 27 ft | 19 kts | 243° |
| 2026-05-06 08:29 | 11.92659 | 121.96244 | 25 ft | 18 kts | 243° |
| 2026-05-06 08:29 | 11.92653 | 121.96203 | 25 ft | 6 kts | 300° |
| 2026-05-06 08:29 | 11.92731 | 121.96158 | 27 ft | 18 kts | 333° |
| 2026-05-06 08:30 | 11.92806 | 121.96099 | 26 ft | 8 kts | 269° |
| 2026-05-06 08:30 | 11.92781 | 121.96045 | 27 ft | 10 kts | 242° |
| 2026-05-06 08:30 | 11.92732 | 121.95946 | 30 ft | 21 kts | 242° |
| 2026-05-06 08:30 | 11.92646 | 121.95775 | 30 ft | 32 kts | 243° |
| 2026-05-06 08:31 | 11.92534 | 121.95554 | 23 ft | 35 kts | 243° |
| 2026-05-06 08:31 | 11.92423 | 121.95332 | 26 ft | 34 kts | 243° |
| 2026-05-06 08:31 | 11.92317 | 121.95122 | 26 ft | 32 kts | 243° |
| 2026-05-06 08:31 | 11.92249 | 121.95023 | 26 ft | 8 kts | 264° |
| 2026-05-06 08:32 | 11.92261 | 121.95020 | 26 ft | 2 kts | 40° |
| 2026-05-06 08:32 | 11.92273 | 121.95036 | 30 ft | 3 kts | 58° |
| 2026-05-06 08:32 | 11.92283 | 121.95055 | 26 ft | 3 kts | 62° |
| 2026-05-06 08:32 | 11.92290 | 121.95068 | 26 ft | 3 kts | 62° |
| 2026-05-06 08:33 | 11.92400 | 121.95289 | 23 ft | 77 kts | 62° |
| 2026-05-06 08:33 | 11.92762 | 121.96021 | 34 ft | 150 kts | 64° |
| 2026-05-06 08:33 | 11.93267 | 121.97086 | 566 ft | 174 kts | 68° |
| 2026-05-06 08:33 | 11.93803 | 121.98205 | 1521 ft | 177 kts | 62° |
| 2026-05-06 08:34 | 11.94374 | 121.99318 | 2516 ft | 177 kts | 63° |
| 2026-05-06 08:34 | 11.95579 | 122.01890 | 3404 ft | 219 kts | 78° |
| 2026-05-06 08:34 | 11.95471 | 122.03441 | 3929 ft | 232 kts | 106° |
| 2026-05-06 08:35 | 11.94673 | 122.04911 | 4531 ft | 243 kts | 122° |
| 2026-05-06 08:35 | 11.93599 | 122.06339 | 4893 ft | 264 kts | 126° |
| 2026-05-06 08:35 | 11.92417 | 122.07819 | 5631 ft | 271 kts | 127° |
| 2026-05-06 08:35 | 11.91224 | 122.09302 | 6611 ft | 270 kts | 127° |
| 2026-05-06 08:36 | 11.90007 | 122.10822 | 7444 ft | 276 kts | 127° |
| 2026-05-06 08:36 | 11.88803 | 122.12336 | 8244 ft | 281 kts | 128° |
| 2026-05-06 08:36 | 11.87566 | 122.13898 | 9069 ft | 286 kts | 128° |
| 2026-05-06 08:36 | 11.86309 | 122.15491 | 9879 ft | 291 kts | 128° |
| 2026-05-06 08:37 | 11.85027 | 122.17120 | 10540 ft | 299 kts | 128° |
| 2026-05-06 08:37 | 11.83705 | 122.18801 | 11205 ft | 307 kts | 128° |
| 2026-05-06 08:37 | 11.82363 | 122.20510 | 11970 ft | 310 kts | 128° |
| 2026-05-06 08:37 | 11.81005 | 122.22240 | 12736 ft | 314 kts | 128° |
| 2026-05-06 08:38 | 11.79631 | 122.23992 | 13491 ft | 318 kts | 128° |
| 2026-05-06 08:38 | 11.78238 | 122.25766 | 14170 ft | 322 kts | 127° |
| 2026-05-06 08:38 | 11.76846 | 122.27539 | 14645 ft | 318 kts | 127° |
| 2026-05-06 08:38 | 11.75457 | 122.29310 | 14865 ft | 325 kts | 127° |
| 2026-05-06 08:39 | 11.73998 | 122.31172 | 14865 ft | 347 kts | 127° |
| 2026-05-06 08:39 | 11.72448 | 122.33147 | 14879 ft | 366 kts | 128° |
| 2026-05-06 08:39 | 11.71059 | 122.35137 | 15932 ft | 337 kts | 123° |
| 2026-05-06 08:39 | 11.69623 | 122.37188 | 15546 ft | 370 kts | 127° |
| 2026-05-06 08:40 | 11.67796 | 122.39139 | 15321 ft | 394 kts | 143° |
| 2026-05-06 08:40 | 11.65463 | 122.40692 | 15130 ft | 404 kts | 147° |
| 2026-05-06 08:40 | 11.63093 | 122.42230 | 14928 ft | 402 kts | 146° |
| 2026-05-06 08:40 | 11.60751 | 122.43785 | 14870 ft | 402 kts | 146° |
| 2026-05-06 08:41 | 11.58430 | 122.45366 | 14862 ft | 400 kts | 145° |
| 2026-05-06 08:41 | 11.56128 | 122.46962 | 14854 ft | 400 kts | 144° |
| 2026-05-06 08:41 | 11.53831 | 122.48572 | 14854 ft | 401 kts | 144° |
| 2026-05-06 08:41 | 11.51539 | 122.50187 | 14853 ft | 401 kts | 144° |
| 2026-05-06 08:42 | 11.49248 | 122.51804 | 14856 ft | 401 kts | 144° |
| 2026-05-06 08:42 | 11.46958 | 122.53420 | 14853 ft | 400 kts | 144° |
| 2026-05-06 08:42 | 11.44667 | 122.55036 | 14858 ft | 400 kts | 144° |
| 2026-05-06 08:42 | 11.43893 | 122.55582 | 14857 ft | 399 kts | 144° |
| 2026-05-06 08:43 | 11.40227 | 122.58163 | 14781 ft | 374 kts | 143° |
| 2026-05-06 08:43 | 11.38112 | 122.59653 | 14647 ft | 363 kts | 144° |
| 2026-05-06 08:43 | 11.36064 | 122.61096 | 14473 ft | 352 kts | 144° |
| 2026-05-06 08:43 | 11.34082 | 122.62493 | 14321 ft | 342 kts | 144° |
| 2026-05-06 08:44 | 11.32151 | 122.63852 | 14181 ft | 332 kts | 143° |
| 2026-05-06 08:44 | 11.30255 | 122.65139 | 14025 ft | 324 kts | 150° |
| 2026-05-06 08:44 | 11.28111 | 122.65947 | 13373 ft | 336 kts | 164° |
| 2026-05-06 08:44 | 11.25854 | 122.66485 | 13186 ft | 327 kts | 165° |
| 2026-05-06 08:45 | 11.23672 | 122.66991 | 13103 ft | 316 kts | 165° |
| 2026-05-06 08:45 | 11.21553 | 122.67491 | 12869 ft | 311 kts | 164° |
| 2026-05-06 08:45 | 11.19453 | 122.67999 | 12520 ft | 310 kts | 164° |
| 2026-05-06 08:45 | 11.17357 | 122.68504 | 12192 ft | 309 kts | 165° |
| 2026-05-06 08:46 | 11.15321 | 122.69009 | 11817 ft | 303 kts | 164° |
| 2026-05-06 08:46 | 11.13282 | 122.69526 | 11270 ft | 302 kts | 163° |
| 2026-05-06 08:46 | 11.11243 | 122.70042 | 10755 ft | 301 kts | 163° |
| 2026-05-06 08:46 | 11.09217 | 122.70550 | 10308 ft | 298 kts | 162° |
| 2026-05-06 08:47 | 11.07239 | 122.71045 | 10116 ft | 287 kts | 162° |
| 2026-05-06 08:47 | 11.05304 | 122.71530 | 9841 ft | 286 kts | 162° |
| 2026-05-06 08:47 | 11.03374 | 122.72016 | 9550 ft | 285 kts | 162° |
| 2026-05-06 08:47 | 11.01452 | 122.72499 | 9270 ft | 284 kts | 162° |
| 2026-05-06 08:48 | 10.99543 | 122.72978 | 9031 ft | 281 kts | 162° |
| 2026-05-06 08:48 | 10.97655 | 122.73452 | 8799 ft | 278 kts | 162° |
| 2026-05-06 08:48 | 10.95778 | 122.73926 | 8574 ft | 279 kts | 162° |
| 2026-05-06 08:48 | 10.93894 | 122.74405 | 8321 ft | 279 kts | 162° |
| 2026-05-06 08:49 | 10.92017 | 122.74882 | 8080 ft | 277 kts | 162° |
| 2026-05-06 08:49 | 10.90153 | 122.75356 | 7823 ft | 275 kts | 163° |
| 2026-05-06 08:49 | 10.88298 | 122.75827 | 7593 ft | 275 kts | 163° |
| 2026-05-06 08:49 | 10.86448 | 122.76296 | 7363 ft | 273 kts | 162° |
| 2026-05-06 08:50 | 10.84610 | 122.76763 | 7139 ft | 270 kts | 162° |
| 2026-05-06 08:50 | 10.82804 | 122.77220 | 6943 ft | 266 kts | 164° |
| 2026-05-06 08:50 | 10.81010 | 122.77676 | 6680 ft | 265 kts | 163° |
| 2026-05-06 08:50 | 10.79226 | 122.78127 | 6424 ft | 264 kts | 160° |
| 2026-05-06 08:51 | 10.77451 | 122.78600 | 6148 ft | 263 kts | 165° |
| 2026-05-06 08:51 | 10.75672 | 122.79030 | 5854 ft | 262 kts | 162° |
| 2026-05-06 08:51 | 10.73908 | 122.79480 | 5585 ft | 261 kts | 162° |
| 2026-05-06 08:51 | 10.72157 | 122.79941 | 5307 ft | 259 kts | 163° |
| 2026-05-06 08:52 | 10.70408 | 122.80385 | 5025 ft | 259 kts | 163° |
| 2026-05-06 08:52 | 10.68665 | 122.80819 | 4763 ft | 257 kts | 163° |
| 2026-05-06 08:52 | 10.66944 | 122.81290 | 4485 ft | 255 kts | 156° |
| 2026-05-06 08:52 | 10.65563 | 122.82357 | 4211 ft | 248 kts | 124° |
| 2026-05-06 08:53 | 10.64657 | 122.83807 | 4088 ft | 240 kts | 116° |
| 2026-05-06 08:53 | 10.63851 | 122.85254 | 3989 ft | 232 kts | 117° |
| 2026-05-06 08:53 | 10.63072 | 122.86653 | 3891 ft | 223 kts | 117° |
| 2026-05-06 08:53 | 10.62319 | 122.87993 | 3800 ft | 215 kts | 117° |
| 2026-05-06 08:54 | 10.61578 | 122.89310 | 3715 ft | 213 kts | 116° |
| 2026-05-06 08:54 | 10.61195 | 122.90756 | 3475 ft | 216 kts | 81° |
| 2026-05-06 08:54 | 10.61850 | 122.92084 | 3331 ft | 215 kts | 44° |
| 2026-05-06 08:54 | 10.62993 | 122.93003 | 3105 ft | 205 kts | 38° |
| 2026-05-06 08:55 | 10.64104 | 122.93846 | 2853 ft | 195 kts | 36° |
| 2026-05-06 08:55 | 10.65212 | 122.94573 | 2635 ft | 185 kts | 32° |
| 2026-05-06 08:55 | 10.66281 | 122.95213 | 2422 ft | 172 kts | 32° |
| 2026-05-06 08:55 | 10.67275 | 122.95798 | 2223 ft | 158 kts | 30° |
| 2026-05-06 08:56 | 10.68171 | 122.96324 | 2041 ft | 141 kts | 30° |
| 2026-05-06 08:56 | 10.68974 | 122.96797 | 1888 ft | 130 kts | 30° |
| 2026-05-06 08:56 | 10.69759 | 122.97258 | 1726 ft | 133 kts | 29° |
| 2026-05-06 08:56 | 10.70568 | 122.97733 | 1552 ft | 135 kts | 30° |
| 2026-05-06 08:57 | 10.71363 | 122.98202 | 1370 ft | 130 kts | 28° |
| 2026-05-06 08:57 | 10.72124 | 122.98649 | 1211 ft | 125 kts | 28° |
| 2026-05-06 08:57 | 10.72909 | 122.99109 | 1021 ft | 134 kts | 30° |
| 2026-05-06 08:57 | 10.73704 | 122.99578 | 826 ft | 131 kts | 29° |
| 2026-05-06 08:58 | 10.74498 | 123.00043 | 655 ft | 134 kts | 32° |
| 2026-05-06 08:58 | 10.75322 | 123.00530 | 466 ft | 139 kts | 30° |
| 2026-05-06 08:58 | 10.76177 | 123.01037 | 259 ft | 143 kts | 30° |
| 2026-05-06 08:58 | 10.77002 | 123.01537 | 126 ft | 134 kts | 29° |
| 2026-05-06 08:59 | 10.77744 | 123.01961 | 96 ft | 106 kts | 30° |
| 2026-05-06 08:59 | 10.78173 | 123.02213 | 95 ft | 50 kts | 30° |